Time;durP1;ratioP1;P1;durP2;ratioP2;P2;SDS_P1;SDS_P2;PMS_P1;PMS_P2;Temp;Humidity;BMP_temperature;BMP_pressure;BME280_temperature;BME280_humidity;BME280_pressure;Samples;Min_cycle;Max_cycle;Signal;HPM_P1;HPM_P2
2024/01/15 00:01:16;;;;;;;20.80;10.03;;;;;;;;;;5027023;28;20263;-64
2024/01/15 00:03:43;;;;;;;25.57;10.60;;;;;;;;;;5023601;28;20280;-63
2024/01/15 00:06:10;;;;;;;24.07;11.20;;;;;;;;;;5025469;28;20211;-64
2024/01/15 00:08:38;;;;;;;19.97;9.07;;;;;;;;;;5024763;28;20193;-64
2024/01/15 00:11:06;;;;;;;24.27;10.70;;;;;;;;;;5020468;28;20201;-64
2024/01/15 00:13:33;;;;;;;18.70;9.57;;;;;;;;;;5024518;28;20200;-63
2024/01/15 00:16:00;;;;;;;25.23;11.00;;;;;;;;;;5022800;28;20201;-70
2024/01/15 00:18:27;;;;;;;24.43;10.13;;;;;;;;;;5021314;28;20228;-69
2024/01/15 00:20:54;;;;;;;26.03;10.73;;;;;;;;;;5020373;28;20201;-69
2024/01/15 00:23:21;;;;;;;24.70;10.33;;;;;;;;;;5021586;28;20279;-70
2024/01/15 00:25:49;;;;;;;25.93;10.67;;;;;;;;;;5022103;28;20208;-71
2024/01/15 00:28:17;;;;;;;21.23;10.37;;;;;;;;;;5020806;28;20200;-71
2024/01/15 00:30:44;;;;;;;21.47;10.33;;;;;;;;;;5023132;28;20207;-70
2024/01/15 00:33:12;;;;;;;28.80;11.47;;;;;;;;;;5021365;28;20211;-70
2024/01/15 00:35:39;;;;;;;25.17;11.77;;;;;;;;;;5021746;28;20214;-70
2024/01/15 00:38:06;;;;;;;32.70;12.33;;;;;;;;;;5020717;28;20219;-70
2024/01/15 00:40:33;;;;;;;33.30;11.47;;;;;;;;;;5018864;28;20205;-68
2024/01/15 00:43:02;;;;;;;26.87;11.80;;;;;;;;;;5023457;28;20227;-70
2024/01/15 00:45:30;;;;;;;29.00;12.17;;;;;;;;;;5022679;28;20224;-70
2024/01/15 00:47:59;;;;;;;30.97;12.77;;;;;;;;;;5016181;28;20323;-70
2024/01/15 00:50:26;;;;;;;22.17;9.60;;;;;;;;;;5017063;28;20204;-70
2024/01/15 00:52:53;;;;;;;27.00;11.80;;;;;;;;;;5022148;28;20200;-70
2024/01/15 00:55:20;;;;;;;27.23;11.50;;;;;;;;;;5019065;28;20208;-70
2024/01/15 00:57:47;;;;;;;27.70;11.03;;;;;;;;;;5023033;28;20246;-70
2024/01/15 01:00:15;;;;;;;28.70;11.97;;;;;;;;;;5023599;28;20219;-70
2024/01/15 01:02:43;;;;;;;29.90;11.47;;;;;;;;;;5023008;28;20275;-69
2024/01/15 01:05:10;;;;;;;27.53;11.80;;;;;;;;;;5020738;28;20200;-70
2024/01/15 01:07:38;;;;;;;31.63;12.40;;;;;;;;;;5018896;28;20223;-69
2024/01/15 01:10:05;;;;;;;29.93;11.97;;;;;;;;;;5018368;28;20212;-70
2024/01/15 01:12:32;;;;;;;32.83;12.97;;;;;;;;;;5015779;28;20211;-70
2024/01/15 01:14:59;;;;;;;34.37;13.33;;;;;;;;;;5020034;28;20210;-70
2024/01/15 01:17:26;;;;;;;32.97;13.03;;;;;;;;;;5015108;28;20227;-70
2024/01/15 01:19:55;;;;;;;37.93;12.77;;;;;;;;;;5021337;28;20197;-70
2024/01/15 01:22:22;;;;;;;34.30;12.63;;;;;;;;;;5023753;28;20204;-70
2024/01/15 01:24:49;;;;;;;34.17;13.27;;;;;;;;;;5023133;28;20208;-69
2024/01/15 01:27:16;;;;;;;37.20;13.60;;;;;;;;;;5021772;28;20219;-69
2024/01/15 01:29:43;;;;;;;35.03;13.67;;;;;;;;;;5024820;28;20207;-69
2024/01/15 01:32:10;;;;;;;34.67;12.50;;;;;;;;;;5019100;28;20212;-70
2024/01/15 01:34:42;;;;;;;34.60;13.03;;;;;;;;;;5017896;28;20209;-70
2024/01/15 01:37:12;;;;;;;35.33;13.40;;;;;;;;;;5026107;28;20205;-70
2024/01/15 01:39:39;;;;;;;42.23;15.33;;;;;;;;;;5025089;28;20201;-70
2024/01/15 01:42:07;;;;;;;38.07;14.67;;;;;;;;;;5028344;28;20210;-69
2024/01/15 01:44:34;;;;;;;32.37;14.00;;;;;;;;;;5020906;28;20207;-69
2024/01/15 01:47:02;;;;;;;38.17;13.87;;;;;;;;;;5020737;28;20225;-69
2024/01/15 01:49:29;;;;;;;39.83;13.60;;;;;;;;;;5021589;28;20200;-69
2024/01/15 01:51:58;;;;;;;41.97;14.03;;;;;;;;;;5021585;28;20219;-70
2024/01/15 01:54:28;;;;;;;34.47;13.57;;;;;;;;;;5019485;28;20200;-70
2024/01/15 01:56:55;;;;;;;36.47;14.50;;;;;;;;;;5027282;28;20203;-69
2024/01/15 01:59:23;;;;;;;37.67;14.23;;;;;;;;;;5023215;28;20230;-70
2024/01/15 02:01:51;;;;;;;37.43;13.70;;;;;;;;;;5015068;28;20286;-70
2024/01/15 02:04:18;;;;;;;32.23;13.93;;;;;;;;;;5028275;28;20207;-70
2024/01/15 02:06:45;;;;;;;36.30;12.13;;;;;;;;;;5020467;28;20196;-70
2024/01/15 02:09:14;;;;;;;36.70;13.53;;;;;;;;;;5022610;28;20211;-70
2024/01/15 02:11:43;;;;;;;35.47;14.13;;;;;;;;;;5021508;28;20209;-70
2024/01/15 02:14:10;;;;;;;34.20;12.03;;;;;;;;;;5024874;28;20253;-70
2024/01/15 02:16:38;;;;;;;35.03;13.87;;;;;;;;;;5026310;28;20207;-69
2024/01/15 02:19:05;;;;;;;41.80;15.27;;;;;;;;;;5023565;28;20232;-68
2024/01/15 02:21:32;;;;;;;33.47;13.83;;;;;;;;;;5018450;28;20204;-68
2024/01/15 02:24:01;;;;;;;29.43;13.10;;;;;;;;;;5017769;28;20212;-67
2024/01/15 02:26:28;;;;;;;32.00;14.07;;;;;;;;;;5013792;28;20216;-68
2024/01/15 02:28:55;;;;;;;35.90;14.17;;;;;;;;;;5020417;28;20228;-68
2024/01/15 02:31:23;;;;;;;34.97;14.37;;;;;;;;;;5024117;28;20203;-69
2024/01/15 02:33:50;;;;;;;38.17;14.97;;;;;;;;;;5017659;28;20204;-70
2024/01/15 02:36:17;;;;;;;36.20;14.03;;;;;;;;;;5024974;28;20192;-63
2024/01/15 02:38:44;;;;;;;37.20;14.83;;;;;;;;;;5020641;28;20224;-64
2024/01/15 02:41:14;;;;;;;35.63;14.67;;;;;;;;;;5021954;28;20205;-64
2024/01/15 02:43:41;;;;;;;40.23;14.57;;;;;;;;;;5016106;28;20211;-65
2024/01/15 02:46:08;;;;;;;32.07;14.53;;;;;;;;;;5016539;28;20216;-63
2024/01/15 02:48:35;;;;;;;38.47;15.17;;;;;;;;;;5018682;28;20287;-64
2024/01/15 02:51:03;;;;;;;46.50;15.17;;;;;;;;;;5012396;28;20204;-63
2024/01/15 02:53:30;;;;;;;39.20;15.33;;;;;;;;;;5017797;28;20208;-63
2024/01/15 02:55:57;;;;;;;35.90;14.23;;;;;;;;;;5019748;28;20207;-63
2024/01/15 02:58:25;;;;;;;40.20;15.83;;;;;;;;;;5022809;28;20319;-63
2024/01/15 03:00:52;;;;;;;41.77;15.33;;;;;;;;;;5020904;28;20208;-63
2024/01/15 03:03:19;;;;;;;40.40;14.70;;;;;;;;;;5022648;28;20210;-64
2024/01/15 03:05:47;;;;;;;38.87;16.17;;;;;;;;;;5021892;28;20212;-64
2024/01/15 03:08:14;;;;;;;35.83;15.27;;;;;;;;;;5021356;28;20192;-64
2024/01/15 03:10:41;;;;;;;42.10;15.70;;;;;;;;;;5021714;28;20204;-64
2024/01/15 03:13:08;;;;;;;39.67;15.20;;;;;;;;;;5015405;28;20208;-62
2024/01/15 03:15:37;;;;;;;44.53;15.97;;;;;;;;;;5016387;28;20292;-62
2024/01/15 03:18:04;;;;;;;45.57;15.83;;;;;;;;;;5015265;28;20254;-63
2024/01/15 03:20:32;;;;;;;42.63;15.90;;;;;;;;;;5013780;28;20215;-63
2024/01/15 03:22:59;;;;;;;45.67;16.00;;;;;;;;;;5020267;28;20200;-63
2024/01/15 03:25:26;;;;;;;42.43;16.00;;;;;;;;;;5021807;28;20284;-62
2024/01/15 03:27:53;;;;;;;35.53;13.40;;;;;;;;;;5020081;28;20231;-64
2024/01/15 03:30:20;;;;;;;42.43;16.63;;;;;;;;;;5025085;28;20199;-64
2024/01/15 03:32:49;;;;;;;41.53;15.63;;;;;;;;;;5024882;28;20208;-63
2024/01/15 03:35:17;;;;;;;40.23;16.00;;;;;;;;;;5022294;28;20208;-63
2024/01/15 03:37:44;;;;;;;40.47;16.80;;;;;;;;;;5020600;28;20458;-64
2024/01/15 03:40:11;;;;;;;37.60;14.93;;;;;;;;;;5023499;28;20208;-63
2024/01/15 03:42:39;;;;;;;38.13;14.70;;;;;;;;;;5030669;28;20247;-63
2024/01/15 03:45:06;;;;;;;40.00;15.90;;;;;;;;;;5023964;28;20202;-69
2024/01/15 03:47:34;;;;;;;43.03;15.87;;;;;;;;;;5015867;28;20218;-69
2024/01/15 03:50:02;;;;;;;41.87;16.10;;;;;;;;;;5025446;28;20223;-68
2024/01/15 03:52:29;;;;;;;37.97;14.33;;;;;;;;;;5018058;28;20214;-69
2024/01/15 03:54:56;;;;;;;44.03;16.53;;;;;;;;;;5022140;28;20196;-69
2024/01/15 03:57:23;;;;;;;43.47;15.50;;;;;;;;;;5027633;28;20195;-69
2024/01/15 03:59:50;;;;;;;41.67;15.87;;;;;;;;;;5020739;28;20241;-70
2024/01/15 04:02:17;;;;;;;42.20;16.33;;;;;;;;;;5020465;28;20511;-69
2024/01/15 04:04:45;;;;;;;41.97;15.67;;;;;;;;;;5025190;28;20213;-70
2024/01/15 04:07:13;;;;;;;41.03;15.67;;;;;;;;;;5027804;28;20292;-67
2024/01/15 04:09:40;;;;;;;44.73;16.20;;;;;;;;;;5017013;28;20197;-69
2024/01/15 04:12:08;;;;;;;43.50;16.27;;;;;;;;;;5028113;28;20212;-69
2024/01/15 04:14:35;;;;;;;41.20;16.27;;;;;;;;;;5027308;28;20208;-69
2024/01/15 04:17:02;;;;;;;37.80;15.60;;;;;;;;;;5024981;28;20209;-69
2024/01/15 04:19:29;;;;;;;40.20;15.93;;;;;;;;;;5024611;28;20229;-69
2024/01/15 04:21:56;;;;;;;49.03;16.90;;;;;;;;;;5024234;28;20212;-69
2024/01/15 04:24:24;;;;;;;45.30;16.43;;;;;;;;;;5024500;28;20208;-69
2024/01/15 04:26:52;;;;;;;45.50;16.53;;;;;;;;;;5025104;28;20464;-69
2024/01/15 04:29:20;;;;;;;40.70;16.30;;;;;;;;;;5025727;28;20200;-69
2024/01/15 04:31:47;;;;;;;38.27;15.67;;;;;;;;;;5020209;28;20201;-69
2024/01/15 04:34:14;;;;;;;38.03;15.23;;;;;;;;;;5020615;28;20205;-69
2024/01/15 04:36:41;;;;;;;49.63;18.00;;;;;;;;;;5021051;28;20203;-69
2024/01/15 04:39:08;;;;;;;35.97;14.73;;;;;;;;;;5024086;28;20224;-68
2024/01/15 04:41:37;;;;;;;34.53;15.90;;;;;;;;;;5025795;28;20201;-69
2024/01/15 04:44:04;;;;;;;38.23;15.70;;;;;;;;;;5030675;28;20200;-69
2024/01/15 04:46:31;;;;;;;39.77;15.47;;;;;;;;;;5020827;28;20206;-70
2024/01/15 04:48:58;;;;;;;39.47;15.73;;;;;;;;;;5024183;28;20197;-69
2024/01/15 04:51:25;;;;;;;43.87;16.43;;;;;;;;;;5018789;28;20209;-69
2024/01/15 04:53:52;;;;;;;39.20;16.43;;;;;;;;;;5022037;28;20197;-70
2024/01/15 04:56:19;;;;;;;43.33;15.70;;;;;;;;;;5022407;28;20209;-64
2024/01/15 04:58:48;;;;;;;39.63;16.93;;;;;;;;;;5021521;28;20433;-63
2024/01/15 05:01:17;;;;;;;46.07;16.93;;;;;;;;;;5018567;28;20240;-64
2024/01/15 05:03:44;;;;;;;36.70;15.57;;;;;;;;;;5022503;28;20239;-64
2024/01/15 05:06:11;;;;;;;40.97;15.83;;;;;;;;;;5028061;28;20211;-64
2024/01/15 05:08:38;;;;;;;37.87;15.70;;;;;;;;;;5022170;28;20200;-63
2024/01/15 05:11:06;;;;;;;35.90;15.83;;;;;;;;;;5025777;28;20213;-63
2024/01/15 05:13:33;;;;;;;37.53;14.53;;;;;;;;;;5028099;28;20235;-63
2024/01/15 05:16:01;;;;;;;33.50;16.03;;;;;;;;;;5026963;28;20213;-63
2024/01/15 05:18:28;;;;;;;32.93;15.33;;;;;;;;;;5023351;28;20210;-63
2024/01/15 05:20:56;;;;;;;35.17;15.40;;;;;;;;;;5028624;28;20230;-63
2024/01/15 05:23:23;;;;;;;43.00;17.53;;;;;;;;;;5033543;28;20204;-63
2024/01/15 05:25:50;;;;;;;36.30;14.93;;;;;;;;;;5032451;28;20209;-65
2024/01/15 05:28:17;;;;;;;34.70;14.77;;;;;;;;;;5028216;28;20211;-63
2024/01/15 05:30:45;;;;;;;37.67;15.63;;;;;;;;;;5037151;28;20202;-63
2024/01/15 05:33:13;;;;;;;33.03;14.70;;;;;;;;;;5028629;28;20217;-64
2024/01/15 05:35:40;;;;;;;37.07;16.50;;;;;;;;;;5029065;28;20287;-63
2024/01/15 05:38:07;;;;;;;36.73;15.63;;;;;;;;;;5027101;28;20207;-63
2024/01/15 05:40:34;;;;;;;32.20;15.67;;;;;;;;;;5022850;28;20224;-64
2024/01/15 05:43:02;;;;;;;35.97;15.27;;;;;;;;;;5025492;28;20210;-63
2024/01/15 05:45:29;;;;;;;33.70;14.50;;;;;;;;;;5030073;28;20200;-62
2024/01/15 05:47:56;;;;;;;33.30;15.77;;;;;;;;;;5022497;28;20220;-63
2024/01/15 05:50:24;;;;;;;33.07;14.93;;;;;;;;;;5028827;28;20207;-62
2024/01/15 05:52:51;;;;;;;31.80;15.70;;;;;;;;;;5029099;28;20321;-62
2024/01/15 05:55:19;;;;;;;33.83;15.43;;;;;;;;;;5026113;28;20200;-63
2024/01/15 05:57:46;;;;;;;30.77;14.13;;;;;;;;;;5028862;28;20200;-62
2024/01/15 06:00:14;;;;;;;31.30;14.43;;;;;;;;;;5028263;28;20235;-62
2024/01/15 06:02:41;;;;;;;33.07;15.03;;;;;;;;;;5025434;28;20291;-65
2024/01/15 06:05:08;;;;;;;28.27;13.43;;;;;;;;;;5025967;28;20213;-62
2024/01/15 06:07:37;;;;;;;32.20;14.13;;;;;;;;;;5021622;28;20299;-63
2024/01/15 06:10:04;;;;;;;31.43;14.63;;;;;;;;;;5020143;28;20199;-62
2024/01/15 06:12:32;;;;;;;29.70;15.23;;;;;;;;;;5024330;28;20274;-63
2024/01/15 06:14:59;;;;;;;30.23;14.37;;;;;;;;;;5019676;28;20228;-63
2024/01/15 06:17:26;;;;;;;31.57;14.37;;;;;;;;;;5020364;28;20218;-62
2024/01/15 06:19:53;;;;;;;30.03;14.13;;;;;;;;;;5022523;28;20218;-64
2024/01/15 06:22:20;;;;;;;35.07;14.57;;;;;;;;;;5018903;28;20224;-63
2024/01/15 06:24:49;;;;;;;32.10;14.87;;;;;;;;;;5020587;28;20223;-63
2024/01/15 06:27:16;;;;;;;36.73;15.50;;;;;;;;;;5024896;28;20205;-63
2024/01/15 06:29:46;;;;;;;32.23;14.63;;;;;;;;;;5023144;28;20200;-64
2024/01/15 06:32:13;;;;;;;31.93;14.30;;;;;;;;;;5020176;28;20227;-63
2024/01/15 06:34:40;;;;;;;28.87;14.77;;;;;;;;;;5018068;28;20218;-63
2024/01/15 06:37:08;;;;;;;27.93;14.37;;;;;;;;;;5023889;28;20211;-64
2024/01/15 06:39:35;;;;;;;29.60;14.40;;;;;;;;;;5021951;28;20316;-63
2024/01/15 06:42:04;;;;;;;31.67;14.40;;;;;;;;;;5024051;28;20203;-63
2024/01/15 06:44:31;;;;;;;32.87;14.10;;;;;;;;;;5025788;28;20204;-63
2024/01/15 06:47:02;;;;;;;30.30;13.60;;;;;;;;;;5023653;28;20217;-63
2024/01/15 06:49:29;;;;;;;34.27;15.50;;;;;;;;;;5021033;28;20230;-63
2024/01/15 06:51:56;;;;;;;29.70;13.90;;;;;;;;;;5021356;28;20215;-65
2024/01/15 06:54:23;;;;;;;35.07;15.37;;;;;;;;;;5022373;28;20211;-63
2024/01/15 06:56:51;;;;;;;34.20;14.47;;;;;;;;;;5018984;28;20201;-63
2024/01/15 06:59:19;;;;;;;36.10;15.00;;;;;;;;;;5024578;28;20271;-63
2024/01/15 07:01:46;;;;;;;35.47;15.30;;;;;;;;;;5022831;28;20227;-63
2024/01/15 07:04:13;;;;;;;34.03;14.87;;;;;;;;;;5024400;28;20201;-63
2024/01/15 07:06:40;;;;;;;32.40;14.67;;;;;;;;;;5025597;28;20201;-64
2024/01/15 07:09:08;;;;;;;32.17;14.50;;;;;;;;;;5018395;28;20215;-63
2024/01/15 07:11:36;;;;;;;34.50;15.70;;;;;;;;;;5019887;28;20197;-64
2024/01/15 07:14:03;;;;;;;36.13;15.43;;;;;;;;;;5020314;28;20209;-62
2024/01/15 07:16:31;;;;;;;33.40;15.47;;;;;;;;;;5018855;28;20208;-68
2024/01/15 07:18:59;;;;;;;26.90;13.87;;;;;;;;;;5021549;28;20200;-68
2024/01/15 07:21:26;;;;;;;33.83;15.50;;;;;;;;;;5016647;28;20215;-69
2024/01/15 07:23:53;;;;;;;32.70;14.80;;;;;;;;;;5018519;28;20208;-68
2024/01/15 07:26:20;;;;;;;29.60;14.13;;;;;;;;;;5019174;28;20206;-69
2024/01/15 07:28:47;;;;;;;34.90;15.63;;;;;;;;;;5021272;28;20205;-67
2024/01/15 07:31:14;;;;;;;26.47;14.00;;;;;;;;;;5019888;28;20211;-68
2024/01/15 07:33:42;;;;;;;31.87;14.67;;;;;;;;;;5018815;28;20217;-68
2024/01/15 07:36:10;;;;;;;31.53;15.00;;;;;;;;;;5025000;28;20201;-68
2024/01/15 07:38:37;;;;;;;31.20;14.53;;;;;;;;;;5019088;28;20205;-68
2024/01/15 07:41:04;;;;;;;27.57;14.03;;;;;;;;;;5017387;28;20236;-69
2024/01/15 07:43:31;;;;;;;29.87;14.67;;;;;;;;;;5020676;28;20196;-68
2024/01/15 07:45:58;;;;;;;31.33;14.43;;;;;;;;;;5019973;28;20210;-69
2024/01/15 07:48:26;;;;;;;29.43;14.83;;;;;;;;;;5020410;28;20216;-69
2024/01/15 07:50:54;;;;;;;29.07;14.33;;;;;;;;;;5020042;28;20197;-68
2024/01/15 07:53:21;;;;;;;32.83;14.90;;;;;;;;;;5019336;28;20226;-67
2024/01/15 07:55:48;;;;;;;33.37;15.43;;;;;;;;;;5020697;28;20208;-67
2024/01/15 07:58:15;;;;;;;38.70;16.43;;;;;;;;;;5025758;28;20299;-68
2024/01/15 08:00:42;;;;;;;34.20;15.87;;;;;;;;;;5021879;28;20236;-68
2024/01/15 08:03:10;;;;;;;32.43;14.40;;;;;;;;;;5017927;28;20239;-68
2024/01/15 08:05:37;;;;;;;35.53;15.73;;;;;;;;;;5021520;28;20445;-68
2024/01/15 08:08:06;;;;;;;31.93;15.20;;;;;;;;;;5021012;28;20235;-69
2024/01/15 08:10:33;;;;;;;34.47;15.60;;;;;;;;;;5017719;28;20205;-67
2024/01/15 08:13:00;;;;;;;35.87;16.10;;;;;;;;;;5021220;28;20204;-68
2024/01/15 08:15:27;;;;;;;36.23;16.63;;;;;;;;;;5019097;28;20209;-68
2024/01/15 08:17:54;;;;;;;30.80;15.97;;;;;;;;;;5022298;28;20212;-67
2024/01/15 08:20:21;;;;;;;32.70;14.63;;;;;;;;;;5019280;28;20502;-68
2024/01/15 08:22:48;;;;;;;34.53;15.63;;;;;;;;;;5026769;28;20674;-68
2024/01/15 08:25:17;;;;;;;31.70;15.57;;;;;;;;;;5018993;28;20206;-63
2024/01/15 08:27:44;;;;;;;30.13;14.60;;;;;;;;;;5019920;28;20192;-63
2024/01/15 08:30:12;;;;;;;29.80;14.57;;;;;;;;;;5025643;28;20216;-63
2024/01/15 08:32:42;;;;;;;31.77;14.70;;;;;;;;;;5024967;28;20197;-64
2024/01/15 08:35:09;;;;;;;28.70;14.40;;;;;;;;;;5024599;28;20343;-62
2024/01/15 08:37:36;;;;;;;29.50;13.97;;;;;;;;;;5024545;28;20200;-63
2024/01/15 08:40:03;;;;;;;34.10;15.63;;;;;;;;;;5023746;28;20220;-64
2024/01/15 08:42:32;;;;;;;28.93;14.60;;;;;;;;;;5022307;28;20205;-63
2024/01/15 08:44:59;;;;;;;29.13;14.70;;;;;;;;;;5022193;28;20204;-63
2024/01/15 08:47:27;;;;;;;28.10;13.97;;;;;;;;;;5017117;28;20201;-63
2024/01/15 08:49:54;;;;;;;31.17;14.77;;;;;;;;;;5025337;28;20204;-63
2024/01/15 08:52:21;;;;;;;30.17;14.57;;;;;;;;;;5023505;28;20643;-63
2024/01/15 08:54:48;;;;;;;28.13;13.97;;;;;;;;;;5021957;28;20233;-63
2024/01/15 08:57:15;;;;;;;23.47;13.13;;;;;;;;;;5027374;28;20200;-63
2024/01/15 08:59:45;;;;;;;27.90;14.43;;;;;;;;;;5023637;28;20205;-63
2024/01/15 09:02:12;;;;;;;29.47;14.57;;;;;;;;;;5026534;28;20261;-63
2024/01/15 09:04:39;;;;;;;25.70;12.83;;;;;;;;;;5024668;28;20228;-63
2024/01/15 09:07:06;;;;;;;28.47;13.10;;;;;;;;;;5026885;28;20214;-64
2024/01/15 09:09:34;;;;;;;27.17;13.70;;;;;;;;;;5025488;28;20215;-63
2024/01/15 09:12:01;;;;;;;28.17;14.17;;;;;;;;;;5025205;28;20303;-63
2024/01/15 09:14:29;;;;;;;26.73;13.23;;;;;;;;;;5022820;28;20201;-63
2024/01/15 09:16:57;;;;;;;27.33;14.03;;;;;;;;;;5021569;28;20295;-63
2024/01/15 09:19:25;;;;;;;35.33;16.83;;;;;;;;;;5021517;28;20200;-63
2024/01/15 09:21:52;;;;;;;29.83;14.57;;;;;;;;;;5019457;28;20225;-63
2024/01/15 09:24:19;;;;;;;25.57;13.00;;;;;;;;;;5021555;28;20205;-63
2024/01/15 09:26:46;;;;;;;22.80;13.23;;;;;;;;;;5021905;28;20208;-63
2024/01/15 09:29:15;;;;;;;24.37;12.77;;;;;;;;;;5023592;28;20206;-63
2024/01/15 09:31:42;;;;;;;24.00;12.73;;;;;;;;;;5027716;28;20290;-63
2024/01/15 09:34:11;;;;;;;25.17;12.67;;;;;;;;;;5027997;28;20211;-63
2024/01/15 09:36:41;;;;;;;20.23;10.63;;;;;;;;;;5028320;28;20258;-68
2024/01/15 09:39:09;;;;;;;22.80;11.63;;;;;;;;;;5021496;28;20210;-67
2024/01/15 09:41:36;;;;;;;22.47;11.27;;;;;;;;;;5021844;28;20539;-68
2024/01/15 09:44:03;;;;;;;18.90;10.80;;;;;;;;;;5025264;28;20200;-68
2024/01/15 09:46:31;;;;;;;20.83;11.43;;;;;;;;;;5020649;28;20216;-68
2024/01/15 09:48:58;;;;;;;17.77;9.90;;;;;;;;;;5024000;28;20222;-68
2024/01/15 09:51:27;;;;;;;19.40;11.00;;;;;;;;;;5019737;28;20212;-68
2024/01/15 09:53:56;;;;;;;20.00;11.63;;;;;;;;;;5019777;28;20213;-67
2024/01/15 09:56:23;;;;;;;22.40;12.30;;;;;;;;;;5022224;28;20218;-68
2024/01/15 09:58:51;;;;;;;17.67;10.80;;;;;;;;;;5025810;28;20200;-68
2024/01/15 10:01:19;;;;;;;18.40;10.20;;;;;;;;;;5023864;28;20231;-68
2024/01/15 10:03:46;;;;;;;20.27;11.70;;;;;;;;;;5026120;28;20209;-69
2024/01/15 10:06:15;;;;;;;19.43;10.57;;;;;;;;;;5024221;28;20222;-68
2024/01/15 10:08:44;;;;;;;18.73;10.50;;;;;;;;;;5020355;28;20211;-68
2024/01/15 10:11:11;;;;;;;19.70;10.60;;;;;;;;;;5020519;28;20204;-67
2024/01/15 10:13:38;;;;;;;18.40;10.63;;;;;;;;;;5020460;28;20218;-67
2024/01/15 10:16:06;;;;;;;17.53;9.67;;;;;;;;;;5022861;28;20291;-68
2024/01/15 10:18:33;;;;;;;15.97;10.40;;;;;;;;;;5019710;28;20200;-68
2024/01/15 10:21:01;;;;;;;18.30;10.97;;;;;;;;;;5020129;28;20208;-69
2024/01/15 10:23:28;;;;;;;15.83;9.70;;;;;;;;;;5015792;28;20256;-68
2024/01/15 10:25:58;;;;;;;18.50;10.73;;;;;;;;;;5021995;28;20213;-67
2024/01/15 10:28:29;;;;;;;15.90;9.93;;;;;;;;;;5021799;28;20216;-69
2024/01/15 10:30:57;;;;;;;15.83;9.47;;;;;;;;;;5026227;28;20196;-68
2024/01/15 10:33:25;;;;;;;17.17;10.10;;;;;;;;;;5017120;28;20215;-67
2024/01/15 10:35:54;;;;;;;16.20;10.20;;;;;;;;;;5013554;28;20217;-67
2024/01/15 10:38:22;;;;;;;16.87;9.93;;;;;;;;;;5011588;28;20216;-68
2024/01/15 10:40:49;;;;;;;15.13;9.97;;;;;;;;;;5018320;28;20297;-68
2024/01/15 10:43:18;;;;;;;14.43;9.50;;;;;;;;;;5019240;28;20208;-67
2024/01/15 10:45:45;;;;;;;15.63;9.77;;;;;;;;;;5021876;28;20324;-63
2024/01/15 10:48:13;;;;;;;14.67;9.90;;;;;;;;;;5023946;28;20206;-62
2024/01/15 10:50:40;;;;;;;16.57;9.40;;;;;;;;;;5018592;28;20204;-63
2024/01/15 10:53:07;;;;;;;14.57;9.47;;;;;;;;;;5018291;28;20204;-64
2024/01/15 10:55:35;;;;;;;14.83;9.50;;;;;;;;;;5022203;28;20205;-62
2024/01/15 10:58:03;;;;;;;16.97;9.93;;;;;;;;;;5017895;28;20221;-62
2024/01/15 11:00:32;;;;;;;16.07;9.50;;;;;;;;;;5023396;28;20221;-64
2024/01/15 11:02:59;;;;;;;15.60;9.50;;;;;;;;;;5023739;28;20262;-63
2024/01/15 11:05:27;;;;;;;15.03;9.90;;;;;;;;;;5025917;28;20200;-64
2024/01/15 11:07:57;;;;;;;13.70;9.07;;;;;;;;;;5022822;28;20208;-63
2024/01/15 11:10:39;;;;;;;13.43;8.80;;;;;;;;;;5021098;28;20211;-62
2024/01/15 11:13:06;;;;;;;15.67;9.73;;;;;;;;;;5015414;28;20208;-64
2024/01/15 11:15:55;;;;;;;13.97;9.17;;;;;;;;;;5018508;28;20215;-63
2024/01/15 11:18:22;;;;;;;12.60;8.93;;;;;;;;;;5019105;28;20211;-63
2024/01/15 11:21:04;;;;;;;14.70;9.63;;;;;;;;;;5020658;28;20220;-63
2024/01/15 11:23:45;;;;;;;13.10;9.40;;;;;;;;;;5020901;28;20208;-62
2024/01/15 11:26:27;;;;;;;13.60;9.10;;;;;;;;;;5021153;28;20209;-63
2024/01/15 11:28:55;;;;;;;12.27;8.67;;;;;;;;;;5013485;28;20222;-62
2024/01/15 11:31:27;;;;;;;13.70;8.70;;;;;;;;;;5004462;28;20204;-63
2024/01/15 11:33:55;;;;;;;12.97;9.13;;;;;;;;;;5007410;28;20210;-64
2024/01/15 11:36:22;;;;;;;12.40;8.70;;;;;;;;;;5007226;28;20304;-62
2024/01/15 11:38:49;;;;;;;12.63;8.63;;;;;;;;;;5008550;28;20223;-63
2024/01/15 11:41:16;;;;;;;13.17;9.10;;;;;;;;;;5006216;28;20227;-63
2024/01/15 11:43:43;;;;;;;12.97;9.33;;;;;;;;;;5008206;28;20216;-63
2024/01/15 11:46:12;;;;;;;12.47;8.97;;;;;;;;;;5007932;28;20212;-63
2024/01/15 11:48:45;;;;;;;13.53;8.83;;;;;;;;;;5018398;28;20231;-63
2024/01/15 11:51:13;;;;;;;12.33;9.17;;;;;;;;;;5020183;28;20239;-62
2024/01/15 11:53:45;;;;;;;11.83;8.43;;;;;;;;;;5020903;28;20262;-63
2024/01/15 11:56:16;;;;;;;11.17;8.20;;;;;;;;;;5021085;28;20544;-68
2024/01/15 11:58:43;;;;;;;11.57;8.37;;;;;;;;;;5010141;28;20208;-68
2024/01/15 12:01:10;;;;;;;12.13;8.00;;;;;;;;;;5004997;28;20228;-67
2024/01/15 12:03:37;;;;;;;11.57;8.50;;;;;;;;;;5009315;28;20207;-67
2024/01/15 12:06:08;;;;;;;11.43;8.37;;;;;;;;;;5005025;28;20213;-68
2024/01/15 12:08:36;;;;;;;12.80;8.20;;;;;;;;;;5006756;28;20209;-68
2024/01/15 12:11:07;;;;;;;10.13;7.63;;;;;;;;;;5005966;28;20196;-67
2024/01/15 12:13:34;;;;;;;10.93;7.87;;;;;;;;;;5014525;28;20212;-68
2024/01/15 12:16:03;;;;;;;10.90;7.83;;;;;;;;;;5018285;28;20208;-67
2024/01/15 12:18:31;;;;;;;11.63;8.40;;;;;;;;;;5026307;28;20204;-67
2024/01/15 12:20:59;;;;;;;10.13;8.20;;;;;;;;;;5014948;28;20226;-67
2024/01/15 12:23:28;;;;;;;10.13;7.47;;;;;;;;;;5018155;28;20212;-68
2024/01/15 12:25:55;;;;;;;9.83;7.60;;;;;;;;;;5021661;28;20205;-67
2024/01/15 12:28:22;;;;;;;13.33;7.97;;;;;;;;;;5024083;28;20234;-68
2024/01/15 12:30:50;;;;;;;9.37;6.80;;;;;;;;;;5017436;28;20212;-67
2024/01/15 12:33:19;;;;;;;10.67;7.03;;;;;;;;;;5013421;28;20236;-68
2024/01/15 12:35:46;;;;;;;11.30;6.97;;;;;;;;;;5018724;28;20220;-67
2024/01/15 12:38:13;;;;;;;9.70;7.23;;;;;;;;;;5015532;28;20216;-67
2024/01/15 12:40:47;;;;;;;7.90;6.20;;;;;;;;;;5020396;28;20196;-67
2024/01/15 12:43:14;;;;;;;10.17;6.70;;;;;;;;;;5016259;28;20211;-67
2024/01/15 12:45:43;;;;;;;11.00;6.60;;;;;;;;;;5017642;28;20208;-67
2024/01/15 12:48:10;;;;;;;8.43;6.27;;;;;;;;;;5018825;28;20223;-67
2024/01/15 12:50:37;;;;;;;7.77;5.67;;;;;;;;;;5022357;28;20227;-67
2024/01/15 12:53:05;;;;;;;7.17;4.93;;;;;;;;;;5017641;28;20854;-66
2024/01/15 12:55:32;;;;;;;8.00;4.40;;;;;;;;;;5005483;28;20213;-67
2024/01/15 12:58:00;;;;;;;7.87;4.23;;;;;;;;;;5011750;28;20211;-67
2024/01/15 13:00:27;;;;;;;5.90;4.00;;;;;;;;;;5010485;28;20208;-66
2024/01/15 13:02:56;;;;;;;6.17;3.17;;;;;;;;;;5011368;28;20495;-67
2024/01/15 13:05:23;;;;;;;4.00;3.10;;;;;;;;;;5006028;28;20275;-67
2024/01/15 13:07:51;;;;;;;3.47;2.30;;;;;;;;;;5010314;28;20212;-67
2024/01/15 13:10:18;;;;;;;7.93;2.50;;;;;;;;;;5007260;28;20209;-67
2024/01/15 13:12:45;;;;;;;4.77;2.33;;;;;;;;;;5003657;28;20200;-68
2024/01/15 13:15:13;;;;;;;3.73;2.40;;;;;;;;;;5014089;28;20204;-66
2024/01/15 13:17:41;;;;;;;4.33;2.40;;;;;;;;;;5020103;28;20209;-67
2024/01/15 13:20:10;;;;;;;30.77;13.37;;;;;;;;;;5018158;28;20208;-68
2024/01/15 13:22:39;;;;;;;6.47;4.10;;;;;;;;;;5018223;28;20223;-67
2024/01/15 13:25:07;;;;;;;3.43;2.90;;;;;;;;;;5011565;28;20231;-67
2024/01/15 13:27:35;;;;;;;2.53;1.77;;;;;;;;;;5003148;28;20235;-66
2024/01/15 13:30:02;;;;;;;4.77;1.80;;;;;;;;;;5010810;28;20212;-68
2024/01/15 13:32:31;;;;;;;4.27;1.57;;;;;;;;;;5020250;28;20215;-67
2024/01/15 13:34:58;;;;;;;3.00;1.60;;;;;;;;;;5020454;28;20208;-67
2024/01/15 13:37:26;;;;;;;3.00;1.97;;;;;;;;;;5023530;28;20340;-67
2024/01/15 13:39:53;;;;;;;5.23;2.00;;;;;;;;;;5017343;28;20208;-67
2024/01/15 13:42:21;;;;;;;2.60;1.80;;;;;;;;;;5020787;28;20247;-67
2024/01/15 13:44:49;;;;;;;3.63;2.00;;;;;;;;;;5020882;28;20219;-67
2024/01/15 13:47:16;;;;;;;4.00;2.00;;;;;;;;;;5021774;28;20205;-66
2024/01/15 13:49:44;;;;;;;2.17;1.97;;;;;;;;;;5016619;28;20201;-67
2024/01/15 13:52:12;;;;;;;3.33;1.70;;;;;;;;;;5013356;28;20208;-67
2024/01/15 13:54:39;;;;;;;3.97;1.70;;;;;;;;;;5006128;28;20258;-66
2024/01/15 13:57:06;;;;;;;2.93;1.37;;;;;;;;;;5009441;28;20209;-66
2024/01/15 13:59:34;;;;;;;3.33;2.17;;;;;;;;;;5011344;28;20210;-66
2024/01/15 14:02:01;;;;;;;2.90;1.67;;;;;;;;;;5011815;28;20232;-67
2024/01/15 14:04:28;;;;;;;3.40;2.47;;;;;;;;;;5024237;28;20212;-66
2024/01/15 14:06:56;;;;;;;4.13;2.07;;;;;;;;;;5017409;28;20200;-66
2024/01/15 14:09:24;;;;;;;3.63;1.87;;;;;;;;;;5021748;28;20205;-67
2024/01/15 14:11:52;;;;;;;4.40;1.93;;;;;;;;;;5016971;28;20209;-67
2024/01/15 14:14:19;;;;;;;4.07;2.63;;;;;;;;;;5015868;28;20238;-67
2024/01/15 14:16:46;;;;;;;3.87;1.80;;;;;;;;;;5022417;28;20205;-68
2024/01/15 14:19:15;;;;;;;3.83;1.73;;;;;;;;;;5022038;28;20208;-68
2024/01/15 14:21:42;;;;;;;2.50;1.70;;;;;;;;;;5018907;28;20232;-67
2024/01/15 14:24:10;;;;;;;2.57;1.67;;;;;;;;;;5020700;28;21384;-67